sensor_id;sensor_type;location;lat;lon;timestamp;P1;durP1;ratioP1;P2;durP2;ratioP2
15240;SDS011;7723;52.170;9.978;2023-07-29T00:00:54;1.70;;;1.50;;
15240;SDS011;7723;52.170;9.978;2023-07-29T00:03:21;1.77;;;1.67;;
15240;SDS011;7723;52.170;9.978;2023-07-29T00:05:48;2.03;;;1.88;;
15240;SDS011;7723;52.170;9.978;2023-07-29T00:08:16;1.88;;;1.73;;
15240;SDS011;7723;52.170;9.978;2023-07-29T00:10:43;3.85;;;1.90;;
15240;SDS011;7723;52.170;9.978;2023-07-29T00:13:11;1.88;;;1.70;;
15240;SDS011;7723;52.170;9.978;2023-07-29T00:15:38;2.15;;;1.95;;
15240;SDS011;7723;52.170;9.978;2023-07-29T00:18:05;2.17;;;1.92;;
15240;SDS011;7723;52.170;9.978;2023-07-29T00:20:32;2.97;;;1.90;;
15240;SDS011;7723;52.170;9.978;2023-07-29T00:22:59;1.50;;;1.40;;
15240;SDS011;7723;52.170;9.978;2023-07-29T00:25:27;2.40;;;1.92;;
15240;SDS011;7723;52.170;9.978;2023-07-29T00:27:55;2.38;;;1.90;;
15240;SDS011;7723;52.170;9.978;2023-07-29T00:30:24;3.10;;;1.83;;
15240;SDS011;7723;52.170;9.978;2023-07-29T00:32:51;2.08;;;1.88;;
15240;SDS011;7723;52.170;9.978;2023-07-29T00:35:18;5.07;;;2.03;;
15240;SDS011;7723;52.170;9.978;2023-07-29T00:37:46;2.63;;;1.95;;
15240;SDS011;7723;52.170;9.978;2023-07-29T00:40:15;2.25;;;1.80;;
15240;SDS011;7723;52.170;9.978;2023-07-29T00:42:45;1.50;;;1.40;;
15240;SDS011;7723;52.170;9.978;2023-07-29T00:45:12;2.38;;;2.05;;
15240;SDS011;7723;52.170;9.978;2023-07-29T00:47:41;2.45;;;1.90;;
15240;SDS011;7723;52.170;9.978;2023-07-29T00:50:10;2.10;;;1.90;;
15240;SDS011;7723;52.170;9.978;2023-07-29T00:52:39;2.70;;;1.73;;
15240;SDS011;7723;52.170;9.978;2023-07-29T00:55:06;1.73;;;1.60;;
15240;SDS011;7723;52.170;9.978;2023-07-29T00:57:34;1.48;;;1.38;;
15240;SDS011;7723;52.170;9.978;2023-07-29T01:00:02;1.95;;;1.63;;
15240;SDS011;7723;52.170;9.978;2023-07-29T01:02:30;1.70;;;1.40;;
15240;SDS011;7723;52.170;9.978;2023-07-29T01:04:59;2.50;;;1.60;;
15240;SDS011;7723;52.170;9.978;2023-07-29T01:07:29;2.13;;;1.75;;
15240;SDS011;7723;52.170;9.978;2023-07-29T01:10:00;2.40;;;1.50;;
15240;SDS011;7723;52.170;9.978;2023-07-29T01:12:34;1.52;;;1.42;;
15240;SDS011;7723;52.170;9.978;2023-07-29T01:15:09;1.67;;;1.58;;
15240;SDS011;7723;52.170;9.978;2023-07-29T01:17:42;1.95;;;1.65;;
15240;SDS011;7723;52.170;9.978;2023-07-29T01:20:15;1.38;;;1.27;;
15240;SDS011;7723;52.170;9.978;2023-07-29T01:22:42;1.80;;;1.42;;
15240;SDS011;7723;52.170;9.978;2023-07-29T01:25:12;1.58;;;1.48;;
15240;SDS011;7723;52.170;9.978;2023-07-29T01:27:39;2.00;;;1.60;;
15240;SDS011;7723;52.170;9.978;2023-07-29T01:30:06;2.00;;;1.63;;
15240;SDS011;7723;52.170;9.978;2023-07-29T01:32:36;1.63;;;1.20;;
15240;SDS011;7723;52.170;9.978;2023-07-29T01:35:10;1.27;;;1.17;;
15240;SDS011;7723;52.170;9.978;2023-07-29T01:37:42;2.42;;;1.60;;
15240;SDS011;7723;52.170;9.978;2023-07-29T01:40:16;1.77;;;1.55;;
15240;SDS011;7723;52.170;9.978;2023-07-29T01:42:45;1.67;;;1.58;;
15240;SDS011;7723;52.170;9.978;2023-07-29T01:45:12;1.60;;;1.50;;
15240;SDS011;7723;52.170;9.978;2023-07-29T01:47:39;3.25;;;1.80;;
15240;SDS011;7723;52.170;9.978;2023-07-29T01:50:07;1.63;;;1.33;;
15240;SDS011;7723;52.170;9.978;2023-07-29T01:52:35;1.77;;;1.58;;
15240;SDS011;7723;52.170;9.978;2023-07-29T01:55:02;1.92;;;1.35;;
15240;SDS011;7723;52.170;9.978;2023-07-29T01:57:31;1.98;;;1.75;;
15240;SDS011;7723;52.170;9.978;2023-07-29T01:59:58;1.58;;;1.48;;
15240;SDS011;7723;52.170;9.978;2023-07-29T02:02:25;1.67;;;1.58;;
15240;SDS011;7723;52.170;9.978;2023-07-29T02:04:52;1.77;;;1.50;;
15240;SDS011;7723;52.170;9.978;2023-07-29T02:07:21;2.33;;;1.70;;
15240;SDS011;7723;52.170;9.978;2023-07-29T02:09:48;1.65;;;1.50;;
15240;SDS011;7723;52.170;9.978;2023-07-29T02:12:15;2.00;;;1.70;;
15240;SDS011;7723;52.170;9.978;2023-07-29T02:14:43;1.30;;;1.20;;
15240;SDS011;7723;52.170;9.978;2023-07-29T02:17:10;1.60;;;1.50;;
15240;SDS011;7723;52.170;9.978;2023-07-29T02:19:37;1.98;;;1.55;;
15240;SDS011;7723;52.170;9.978;2023-07-29T02:22:04;2.00;;;1.42;;
15240;SDS011;7723;52.170;9.978;2023-07-29T02:24:31;1.63;;;1.52;;
15240;SDS011;7723;52.170;9.978;2023-07-29T02:26:59;1.95;;;1.77;;
15240;SDS011;7723;52.170;9.978;2023-07-29T02:29:26;3.55;;;1.83;;
15240;SDS011;7723;52.170;9.978;2023-07-29T02:31:54;1.88;;;1.50;;
15240;SDS011;7723;52.170;9.978;2023-07-29T02:34:21;1.50;;;1.40;;
15240;SDS011;7723;52.170;9.978;2023-07-29T02:36:49;1.60;;;1.50;;
15240;SDS011;7723;52.170;9.978;2023-07-29T02:39:16;1.73;;;1.60;;
15240;SDS011;7723;52.170;9.978;2023-07-29T02:41:43;1.77;;;1.67;;
15240;SDS011;7723;52.170;9.978;2023-07-29T02:44:10;2.80;;;1.50;;
15240;SDS011;7723;52.170;9.978;2023-07-29T02:46:37;2.78;;;1.65;;
15240;SDS011;7723;52.170;9.978;2023-07-29T02:49:06;1.88;;;1.30;;
15240;SDS011;7723;52.170;9.978;2023-07-29T02:51:33;1.70;;;1.60;;
15240;SDS011;7723;52.170;9.978;2023-07-29T02:54:00;1.70;;;1.55;;
15240;SDS011;7723;52.170;9.978;2023-07-29T02:56:28;1.75;;;1.48;;
15240;SDS011;7723;52.170;9.978;2023-07-29T02:58:55;3.13;;;1.50;;
15240;SDS011;7723;52.170;9.978;2023-07-29T03:01:22;3.13;;;1.55;;
15240;SDS011;7723;52.170;9.978;2023-07-29T03:03:51;1.77;;;1.27;;
15240;SDS011;7723;52.170;9.978;2023-07-29T03:06:19;1.60;;;1.50;;
15240;SDS011;7723;52.170;9.978;2023-07-29T03:08:46;2.67;;;1.38;;
15240;SDS011;7723;52.170;9.978;2023-07-29T03:11:14;1.70;;;1.60;;
15240;SDS011;7723;52.170;9.978;2023-07-29T03:13:42;1.70;;;1.58;;
15240;SDS011;7723;52.170;9.978;2023-07-29T03:16:10;1.85;;;1.60;;
15240;SDS011;7723;52.170;9.978;2023-07-29T03:18:38;1.63;;;1.52;;
15240;SDS011;7723;52.170;9.978;2023-07-29T03:21:06;1.58;;;1.48;;
15240;SDS011;7723;52.170;9.978;2023-07-29T03:23:35;1.88;;;1.77;;
15240;SDS011;7723;52.170;9.978;2023-07-29T03:26:02;1.77;;;1.65;;
15240;SDS011;7723;52.170;9.978;2023-07-29T03:28:36;1.50;;;1.38;;
15240;SDS011;7723;52.170;9.978;2023-07-29T03:31:03;1.60;;;1.50;;
15240;SDS011;7723;52.170;9.978;2023-07-29T03:33:30;3.47;;;2.08;;
15240;SDS011;7723;52.170;9.978;2023-07-29T03:35:58;1.40;;;1.30;;
15240;SDS011;7723;52.170;9.978;2023-07-29T03:38:25;2.33;;;1.40;;
15240;SDS011;7723;52.170;9.978;2023-07-29T03:40:54;1.75;;;1.63;;
15240;SDS011;7723;52.170;9.978;2023-07-29T03:43:21;1.67;;;1.38;;
15240;SDS011;7723;52.170;9.978;2023-07-29T03:45:48;3.38;;;1.70;;
15240;SDS011;7723;52.170;9.978;2023-07-29T03:48:15;2.22;;;1.52;;
15240;SDS011;7723;52.170;9.978;2023-07-29T03:50:42;2.10;;;1.90;;
15240;SDS011;7723;52.170;9.978;2023-07-29T03:53:09;3.25;;;1.70;;
15240;SDS011;7723;52.170;9.978;2023-07-29T03:55:36;2.55;;;1.58;;
15240;SDS011;7723;52.170;9.978;2023-07-29T03:58:05;1.80;;;1.70;;
15240;SDS011;7723;52.170;9.978;2023-07-29T04:00:32;1.70;;;1.60;;
15240;SDS011;7723;52.170;9.978;2023-07-29T04:02:59;2.83;;;1.58;;
15240;SDS011;7723;52.170;9.978;2023-07-29T04:05:26;1.50;;;1.40;;
15240;SDS011;7723;52.170;9.978;2023-07-29T04:07:53;4.90;;;1.80;;
15240;SDS011;7723;52.170;9.978;2023-07-29T04:10:20;2.30;;;1.52;;
15240;SDS011;7723;52.170;9.978;2023-07-29T04:12:47;1.83;;;1.67;;
15240;SDS011;7723;52.170;9.978;2023-07-29T04:15:16;1.80;;;1.58;;
15240;SDS011;7723;52.170;9.978;2023-07-29T04:17:43;1.60;;;1.45;;
15240;SDS011;7723;52.170;9.978;2023-07-29T04:20:11;1.70;;;1.60;;
15240;SDS011;7723;52.170;9.978;2023-07-29T04:22:38;1.88;;;1.73;;
15240;SDS011;7723;52.170;9.978;2023-07-29T04:25:06;1.92;;;1.48;;
15240;SDS011;7723;52.170;9.978;2023-07-29T04:27:33;1.42;;;1.33;;
15240;SDS011;7723;52.170;9.978;2023-07-29T04:30:00;2.03;;;1.67;;
15240;SDS011;7723;52.170;9.978;2023-07-29T04:32:29;2.38;;;1.48;;
15240;SDS011;7723;52.170;9.978;2023-07-29T04:34:56;1.58;;;1.38;;
15240;SDS011;7723;52.170;9.978;2023-07-29T04:37:23;2.42;;;1.77;;
15240;SDS011;7723;52.170;9.978;2023-07-29T04:39:50;1.95;;;1.77;;
15240;SDS011;7723;52.170;9.978;2023-07-29T04:42:17;1.60;;;1.50;;
15240;SDS011;7723;52.170;9.978;2023-07-29T04:44:44;2.03;;;1.45;;
15240;SDS011;7723;52.170;9.978;2023-07-29T04:47:11;1.75;;;1.45;;
15240;SDS011;7723;52.170;9.978;2023-07-29T04:49:41;2.22;;;1.83;;
15240;SDS011;7723;52.170;9.978;2023-07-29T04:52:08;1.67;;;1.50;;
15240;SDS011;7723;52.170;9.978;2023-07-29T04:54:35;2.05;;;1.58;;
15240;SDS011;7723;52.170;9.978;2023-07-29T04:57:02;2.05;;;1.60;;
15240;SDS011;7723;52.170;9.978;2023-07-29T04:59:30;1.95;;;1.60;;
15240;SDS011;7723;52.170;9.978;2023-07-29T05:01:57;1.50;;;1.40;;
15240;SDS011;7723;52.170;9.978;2023-07-29T05:04:24;2.25;;;1.40;;
15240;SDS011;7723;52.170;9.978;2023-07-29T05:06:52;4.65;;;1.70;;
15240;SDS011;7723;52.170;9.978;2023-07-29T05:09:19;3.13;;;2.00;;
15240;SDS011;7723;52.170;9.978;2023-07-29T05:11:47;2.92;;;1.85;;
15240;SDS011;7723;52.170;9.978;2023-07-29T05:14:14;1.55;;;1.45;;
15240;SDS011;7723;52.170;9.978;2023-07-29T05:16:42;1.73;;;1.60;;
15240;SDS011;7723;52.170;9.978;2023-07-29T05:19:10;2.00;;;1.80;;
15240;SDS011;7723;52.170;9.978;2023-07-29T05:21:37;3.65;;;1.55;;
15240;SDS011;7723;52.170;9.978;2023-07-29T05:24:06;5.20;;;1.92;;
15240;SDS011;7723;52.170;9.978;2023-07-29T05:26:33;2.20;;;1.90;;
15240;SDS011;7723;52.170;9.978;2023-07-29T05:29:00;1.88;;;1.65;;
15240;SDS011;7723;52.170;9.978;2023-07-29T05:31:29;1.77;;;1.65;;
15240;SDS011;7723;52.170;9.978;2023-07-29T05:33:56;2.58;;;1.95;;
15240;SDS011;7723;52.170;9.978;2023-07-29T05:36:23;2.17;;;1.98;;
15240;SDS011;7723;52.170;9.978;2023-07-29T05:38:51;4.25;;;1.90;;
15240;SDS011;7723;52.170;9.978;2023-07-29T05:41:20;1.85;;;1.40;;
15240;SDS011;7723;52.170;9.978;2023-07-29T05:43:47;2.10;;;1.90;;
15240;SDS011;7723;52.170;9.978;2023-07-29T05:46:14;1.95;;;1.77;;
15240;SDS011;7723;52.170;9.978;2023-07-29T05:48:41;2.10;;;1.40;;
15240;SDS011;7723;52.170;9.978;2023-07-29T05:51:08;1.95;;;1.70;;
15240;SDS011;7723;52.170;9.978;2023-07-29T05:53:35;1.92;;;1.73;;
15240;SDS011;7723;52.170;9.978;2023-07-29T05:56:02;1.63;;;1.50;;
15240;SDS011;7723;52.170;9.978;2023-07-29T05:58:31;3.50;;;1.95;;
15240;SDS011;7723;52.170;9.978;2023-07-29T06:00:58;1.60;;;1.50;;
15240;SDS011;7723;52.170;9.978;2023-07-29T06:03:25;3.35;;;1.83;;
15240;SDS011;7723;52.170;9.978;2023-07-29T06:05:53;1.92;;;1.73;;
15240;SDS011;7723;52.170;9.978;2023-07-29T06:08:20;2.17;;;1.80;;
15240;SDS011;7723;52.170;9.978;2023-07-29T06:10:48;4.32;;;1.90;;
15240;SDS011;7723;52.170;9.978;2023-07-29T06:13:15;1.65;;;1.55;;
15240;SDS011;7723;52.170;9.978;2023-07-29T06:15:43;2.55;;;2.10;;
15240;SDS011;7723;52.170;9.978;2023-07-29T06:18:10;2.28;;;2.08;;
15240;SDS011;7723;52.170;9.978;2023-07-29T06:20:37;2.58;;;2.10;;
15240;SDS011;7723;52.170;9.978;2023-07-29T06:23:05;2.55;;;2.10;;
15240;SDS011;7723;52.170;9.978;2023-07-29T06:25:32;2.42;;;2.22;;
15240;SDS011;7723;52.170;9.978;2023-07-29T06:27:59;2.40;;;1.95;;
15240;SDS011;7723;52.170;9.978;2023-07-29T06:30:26;2.15;;;1.90;;
15240;SDS011;7723;52.170;9.978;2023-07-29T06:32:55;1.88;;;1.77;;
15240;SDS011;7723;52.170;9.978;2023-07-29T06:35:22;2.20;;;2.00;;
15240;SDS011;7723;52.170;9.978;2023-07-29T06:37:49;2.17;;;1.58;;
15240;SDS011;7723;52.170;9.978;2023-07-29T06:40:16;1.58;;;1.48;;
15240;SDS011;7723;52.170;9.978;2023-07-29T06:42:43;3.00;;;1.90;;
15240;SDS011;7723;52.170;9.978;2023-07-29T06:45:11;3.75;;;2.03;;
15240;SDS011;7723;52.170;9.978;2023-07-29T06:47:38;2.05;;;1.38;;
15240;SDS011;7723;52.170;9.978;2023-07-29T06:50:06;1.30;;;1.20;;
15240;SDS011;7723;52.170;9.978;2023-07-29T06:52:34;1.25;;;1.10;;
15240;SDS011;7723;52.170;9.978;2023-07-29T06:55:03;1.13;;;0.80;;
15240;SDS011;7723;52.170;9.978;2023-07-29T06:57:31;1.45;;;0.90;;
15240;SDS011;7723;52.170;9.978;2023-07-29T06:59:58;1.40;;;1.05;;
15240;SDS011;7723;52.170;9.978;2023-07-29T07:02:25;1.27;;;0.88;;
15240;SDS011;7723;52.170;9.978;2023-07-29T07:04:52;1.27;;;1.17;;
15240;SDS011;7723;52.170;9.978;2023-07-29T07:07:21;1.80;;;0.90;;
15240;SDS011;7723;52.170;9.978;2023-07-29T07:09:48;1.48;;;0.85;;
15240;SDS011;7723;52.170;9.978;2023-07-29T07:12:15;0.90;;;0.70;;
15240;SDS011;7723;52.170;9.978;2023-07-29T07:14:42;1.25;;;0.70;;
15240;SDS011;7723;52.170;9.978;2023-07-29T07:17:09;0.60;;;0.60;;
15240;SDS011;7723;52.170;9.978;2023-07-29T07:19:36;1.60;;;0.80;;
15240;SDS011;7723;52.170;9.978;2023-07-29T07:22:03;0.90;;;0.60;;
15240;SDS011;7723;52.170;9.978;2023-07-29T07:24:32;0.80;;;0.70;;
15240;SDS011;7723;52.170;9.978;2023-07-29T07:26:59;0.68;;;0.50;;
15240;SDS011;7723;52.170;9.978;2023-07-29T07:29:26;0.52;;;0.50;;
15240;SDS011;7723;52.170;9.978;2023-07-29T07:31:53;0.60;;;0.57;;
15240;SDS011;7723;52.170;9.978;2023-07-29T07:34:22;1.02;;;0.70;;
15240;SDS011;7723;52.170;9.978;2023-07-29T07:36:49;1.55;;;0.50;;
15240;SDS011;7723;52.170;9.978;2023-07-29T07:39:16;0.85;;;0.73;;
15240;SDS011;7723;52.170;9.978;2023-07-29T07:41:45;2.90;;;0.93;;
15240;SDS011;7723;52.170;9.978;2023-07-29T07:44:12;0.60;;;0.57;;
15240;SDS011;7723;52.170;9.978;2023-07-29T07:46:42;0.98;;;0.70;;
15240;SDS011;7723;52.170;9.978;2023-07-29T07:49:09;0.80;;;0.60;;
15240;SDS011;7723;52.170;9.978;2023-07-29T07:51:37;1.45;;;0.70;;
15240;SDS011;7723;52.170;9.978;2023-07-29T07:54:05;0.68;;;0.68;;
15240;SDS011;7723;52.170;9.978;2023-07-29T07:56:32;0.57;;;0.43;;
15240;SDS011;7723;52.170;9.978;2023-07-29T07:59:01;0.55;;;0.50;;
15240;SDS011;7723;52.170;9.978;2023-07-29T08:01:28;0.77;;;0.73;;
15240;SDS011;7723;52.170;9.978;2023-07-29T08:04:00;0.70;;;0.57;;
15240;SDS011;7723;52.170;9.978;2023-07-29T08:06:27;1.42;;;0.60;;
15240;SDS011;7723;52.170;9.978;2023-07-29T08:08:55;0.60;;;0.60;;
15240;SDS011;7723;52.170;9.978;2023-07-29T08:11:22;0.75;;;0.75;;
15240;SDS011;7723;52.170;9.978;2023-07-29T08:13:49;0.60;;;0.60;;
15240;SDS011;7723;52.170;9.978;2023-07-29T08:16:18;1.50;;;0.60;;
15240;SDS011;7723;52.170;9.978;2023-07-29T08:18:45;0.82;;;0.57;;
15240;SDS011;7723;52.170;9.978;2023-07-29T08:21:12;0.90;;;0.60;;
15240;SDS011;7723;52.170;9.978;2023-07-29T08:23:39;0.60;;;0.60;;
15240;SDS011;7723;52.170;9.978;2023-07-29T08:26:06;0.60;;;0.60;;
15240;SDS011;7723;52.170;9.978;2023-07-29T08:28:34;0.77;;;0.73;;
15240;SDS011;7723;52.170;9.978;2023-07-29T08:31:02;1.23;;;0.60;;
15240;SDS011;7723;52.170;9.978;2023-07-29T08:36:00;0.90;;;0.70;;
15240;SDS011;7723;52.170;9.978;2023-07-29T08:38:27;0.63;;;0.55;;
15240;SDS011;7723;52.170;9.978;2023-07-29T08:40:57;0.73;;;0.73;;
15240;SDS011;7723;52.170;9.978;2023-07-29T08:43:30;0.77;;;0.77;;
15240;SDS011;7723;52.170;9.978;2023-07-29T08:45:59;1.90;;;0.88;;
15240;SDS011;7723;52.170;9.978;2023-07-29T08:48:29;1.10;;;0.90;;
15240;SDS011;7723;52.170;9.978;2023-07-29T08:51:03;0.73;;;0.73;;
15240;SDS011;7723;52.170;9.978;2023-07-29T08:53:31;1.23;;;0.80;;
15240;SDS011;7723;52.170;9.978;2023-07-29T08:55:59;1.00;;;1.00;;
15240;SDS011;7723;52.170;9.978;2023-07-29T08:58:26;1.08;;;1.00;;
15240;SDS011;7723;52.170;9.978;2023-07-29T09:00:54;1.23;;;1.10;;
15240;SDS011;7723;52.170;9.978;2023-07-29T09:03:21;1.27;;;1.17;;
15240;SDS011;7723;52.170;9.978;2023-07-29T09:05:50;1.42;;;1.00;;
15240;SDS011;7723;52.170;9.978;2023-07-29T09:08:18;0.90;;;0.90;;
15240;SDS011;7723;52.170;9.978;2023-07-29T09:10:46;1.52;;;1.00;;
15240;SDS011;7723;52.170;9.978;2023-07-29T09:13:13;0.90;;;0.90;;
15240;SDS011;7723;52.170;9.978;2023-07-29T09:15:40;0.80;;;0.80;;
15240;SDS011;7723;52.170;9.978;2023-07-29T09:18:09;1.50;;;0.93;;
15240;SDS011;7723;52.170;9.978;2023-07-29T09:20:37;1.77;;;1.30;;
15240;SDS011;7723;52.170;9.978;2023-07-29T09:23:06;2.40;;;1.05;;
15240;SDS011;7723;52.170;9.978;2023-07-29T09:25:35;1.35;;;1.25;;
15240;SDS011;7723;52.170;9.978;2023-07-29T09:28:07;1.35;;;1.23;;
15240;SDS011;7723;52.170;9.978;2023-07-29T09:30:36;1.95;;;1.40;;
15240;SDS011;7723;52.170;9.978;2023-07-29T09:33:03;1.48;;;1.38;;
15240;SDS011;7723;52.170;9.978;2023-07-29T09:35:32;1.67;;;1.42;;
15240;SDS011;7723;52.170;9.978;2023-07-29T09:38:00;1.60;;;1.50;;
15240;SDS011;7723;52.170;9.978;2023-07-29T09:40:33;2.20;;;1.40;;
15240;SDS011;7723;52.170;9.978;2023-07-29T09:43:01;3.50;;;2.00;;
15240;SDS011;7723;52.170;9.978;2023-07-29T09:45:29;1.88;;;1.70;;
15240;SDS011;7723;52.170;9.978;2023-07-29T09:47:56;2.05;;;1.80;;
15240;SDS011;7723;52.170;9.978;2023-07-29T09:50:25;2.20;;;1.90;;
15240;SDS011;7723;52.170;9.978;2023-07-29T09:52:53;2.92;;;1.98;;
15240;SDS011;7723;52.170;9.978;2023-07-29T09:55:21;2.45;;;2.25;;
15240;SDS011;7723;52.170;9.978;2023-07-29T09:57:54;2.67;;;2.47;;
15240;SDS011;7723;52.170;9.978;2023-07-29T10:00:24;2.55;;;2.35;;
15240;SDS011;7723;52.170;9.978;2023-07-29T10:02:51;2.78;;;2.50;;
15240;SDS011;7723;52.170;9.978;2023-07-29T10:05:20;3.75;;;3.42;;
15240;SDS011;7723;52.170;9.978;2023-07-29T10:07:49;4.85;;;3.88;;
15240;SDS011;7723;52.170;9.978;2023-07-29T10:10:16;4.13;;;3.55;;
15240;SDS011;7723;52.170;9.978;2023-07-29T10:12:44;4.68;;;3.10;;
15240;SDS011;7723;52.170;9.978;2023-07-29T10:15:14;3.83;;;3.53;;
15240;SDS011;7723;52.170;9.978;2023-07-29T10:17:41;3.92;;;3.53;;
15240;SDS011;7723;52.170;9.978;2023-07-29T10:20:09;4.22;;;3.83;;
15240;SDS011;7723;52.170;9.978;2023-07-29T10:22:38;6.05;;;4.60;;
15240;SDS011;7723;52.170;9.978;2023-07-29T10:25:07;6.47;;;5.00;;
15240;SDS011;7723;52.170;9.978;2023-07-29T10:27:39;5.65;;;5.07;;
15240;SDS011;7723;52.170;9.978;2023-07-29T10:30:10;6.07;;;5.32;;
15240;SDS011;7723;52.170;9.978;2023-07-29T10:32:40;6.10;;;4.82;;
15240;SDS011;7723;52.170;9.978;2023-07-29T10:35:13;5.97;;;5.32;;
15240;SDS011;7723;52.170;9.978;2023-07-29T10:37:41;6.60;;;5.03;;
15240;SDS011;7723;52.170;9.978;2023-07-29T10:40:09;5.60;;;5.10;;
15240;SDS011;7723;52.170;9.978;2023-07-29T10:42:37;5.47;;;5.03;;
15240;SDS011;7723;52.170;9.978;2023-07-29T10:45:17;5.63;;;5.10;;
15240;SDS011;7723;52.170;9.978;2023-07-29T10:47:47;5.43;;;4.93;;
15240;SDS011;7723;52.170;9.978;2023-07-29T10:50:17;5.28;;;4.78;;
15240;SDS011;7723;52.170;9.978;2023-07-29T10:52:48;5.43;;;4.93;;
15240;SDS011;7723;52.170;9.978;2023-07-29T10:55:24;5.97;;;5.35;;
15240;SDS011;7723;52.170;9.978;2023-07-29T10:57:53;6.10;;;4.60;;
15240;SDS011;7723;52.170;9.978;2023-07-29T11:00:32;5.65;;;5.15;;
15240;SDS011;7723;52.170;9.978;2023-07-29T11:03:01;5.30;;;4.90;;
15240;SDS011;7723;52.170;9.978;2023-07-29T11:05:41;5.32;;;4.82;;
15240;SDS011;7723;52.170;9.978;2023-07-29T11:08:17;5.10;;;4.70;;
15240;SDS011;7723;52.170;9.978;2023-07-29T11:10:52;5.72;;;5.22;;
15240;SDS011;7723;52.170;9.978;2023-07-29T11:13:25;5.35;;;4.85;;
15240;SDS011;7723;52.170;9.978;2023-07-29T11:15:54;5.60;;;5.10;;
15240;SDS011;7723;52.170;9.978;2023-07-29T11:18:25;6.00;;;5.47;;
15240;SDS011;7723;52.170;9.978;2023-07-29T11:20:54;6.95;;;5.60;;
15240;SDS011;7723;52.170;9.978;2023-07-29T11:23:27;6.50;;;5.28;;
15240;SDS011;7723;52.170;9.978;2023-07-29T11:25:55;5.47;;;4.95;;
15240;SDS011;7723;52.170;9.978;2023-07-29T11:28:23;5.47;;;4.97;;
15240;SDS011;7723;52.170;9.978;2023-07-29T11:30:51;4.53;;;4.22;;
15240;SDS011;7723;52.170;9.978;2023-07-29T11:33:19;4.50;;;4.10;;
15240;SDS011;7723;52.170;9.978;2023-07-29T11:35:48;4.38;;;3.97;;
15240;SDS011;7723;52.170;9.978;2023-07-29T11:38:16;3.97;;;3.00;;
15240;SDS011;7723;52.170;9.978;2023-07-29T11:40:44;4.10;;;2.85;;
15240;SDS011;7723;52.170;9.978;2023-07-29T11:43:20;3.30;;;3.00;;
15240;SDS011;7723;52.170;9.978;2023-07-29T11:45:47;3.78;;;3.47;;
15240;SDS011;7723;52.170;9.978;2023-07-29T11:48:15;2.90;;;2.70;;
15240;SDS011;7723;52.170;9.978;2023-07-29T11:50:42;2.30;;;2.10;;
15240;SDS011;7723;52.170;9.978;2023-07-29T11:53:13;3.58;;;2.40;;
15240;SDS011;7723;52.170;9.978;2023-07-29T11:55:40;2.10;;;2.00;;
15240;SDS011;7723;52.170;9.978;2023-07-29T11:58:07;2.83;;;2.47;;
15240;SDS011;7723;52.170;9.978;2023-07-29T12:00:34;2.33;;;2.13;;
15240;SDS011;7723;52.170;9.978;2023-07-29T12:03:02;3.05;;;1.95;;
15240;SDS011;7723;52.170;9.978;2023-07-29T12:05:30;1.98;;;1.88;;
15240;SDS011;7723;52.170;9.978;2023-07-29T12:07:57;2.17;;;1.85;;
15240;SDS011;7723;52.170;9.978;2023-07-29T12:10:26;2.30;;;1.75;;
15240;SDS011;7723;52.170;9.978;2023-07-29T12:12:53;2.03;;;1.38;;
15240;SDS011;7723;52.170;9.978;2023-07-29T12:15:24;1.75;;;1.65;;
15240;SDS011;7723;52.170;9.978;2023-07-29T12:17:53;1.50;;;1.40;;
15240;SDS011;7723;52.170;9.978;2023-07-29T12:20:22;1.88;;;1.25;;
15240;SDS011;7723;52.170;9.978;2023-07-29T12:22:53;2.40;;;1.27;;
15240;SDS011;7723;52.170;9.978;2023-07-29T12:25:20;1.98;;;1.20;;
15240;SDS011;7723;52.170;9.978;2023-07-29T12:27:49;1.10;;;1.00;;
15240;SDS011;7723;52.170;9.978;2023-07-29T12:30:19;1.55;;;1.30;;
15240;SDS011;7723;52.170;9.978;2023-07-29T12:32:48;1.13;;;1.02;;
15240;SDS011;7723;52.170;9.978;2023-07-29T12:35:16;1.45;;;1.35;;
15240;SDS011;7723;52.170;9.978;2023-07-29T12:37:43;1.35;;;1.10;;
15240;SDS011;7723;52.170;9.978;2023-07-29T12:40:20;1.35;;;0.98;;
15240;SDS011;7723;52.170;9.978;2023-07-29T12:42:51;1.40;;;1.17;;
15240;SDS011;7723;52.170;9.978;2023-07-29T12:45:19;1.10;;;1.00;;
15240;SDS011;7723;52.170;9.978;2023-07-29T12:47:48;1.23;;;1.05;;
15240;SDS011;7723;52.170;9.978;2023-07-29T12:50:15;1.00;;;0.82;;
15240;SDS011;7723;52.170;9.978;2023-07-29T12:52:43;1.20;;;1.10;;
15240;SDS011;7723;52.170;9.978;2023-07-29T12:55:11;1.15;;;1.00;;
15240;SDS011;7723;52.170;9.978;2023-07-29T12:57:39;1.20;;;1.00;;
15240;SDS011;7723;52.170;9.978;2023-07-29T13:00:09;1.83;;;0.93;;
15240;SDS011;7723;52.170;9.978;2023-07-29T13:02:37;0.98;;;0.80;;
15240;SDS011;7723;52.170;9.978;2023-07-29T13:05:05;0.98;;;0.88;;
15240;SDS011;7723;52.170;9.978;2023-07-29T13:07:36;0.77;;;0.77;;
15240;SDS011;7723;52.170;9.978;2023-07-29T13:10:03;0.73;;;0.70;;
15240;SDS011;7723;52.170;9.978;2023-07-29T13:12:30;0.85;;;0.85;;
15240;SDS011;7723;52.170;9.978;2023-07-29T13:14:58;1.52;;;1.00;;
15240;SDS011;7723;52.170;9.978;2023-07-29T13:17:26;1.35;;;0.98;;
15240;SDS011;7723;52.170;9.978;2023-07-29T13:19:53;2.13;;;0.88;;
15240;SDS011;7723;52.170;9.978;2023-07-29T13:22:21;1.95;;;0.95;;
15240;SDS011;7723;52.170;9.978;2023-07-29T13:24:48;0.68;;;0.68;;
15240;SDS011;7723;52.170;9.978;2023-07-29T13:27:15;0.88;;;0.70;;
15240;SDS011;7723;52.170;9.978;2023-07-29T13:29:42;1.00;;;0.90;;
15240;SDS011;7723;52.170;9.978;2023-07-29T13:32:11;0.88;;;0.60;;
15240;SDS011;7723;52.170;9.978;2023-07-29T13:34:39;1.48;;;1.08;;
15240;SDS011;7723;52.170;9.978;2023-07-29T13:37:06;0.70;;;0.70;;
15240;SDS011;7723;52.170;9.978;2023-07-29T13:39:33;2.90;;;0.70;;
15240;SDS011;7723;52.170;9.978;2023-07-29T13:42:00;1.10;;;0.80;;
15240;SDS011;7723;52.170;9.978;2023-07-29T13:44:27;0.93;;;0.77;;
15240;SDS011;7723;52.170;9.978;2023-07-29T13:46:54;0.90;;;0.80;;
15240;SDS011;7723;52.170;9.978;2023-07-29T13:49:21;0.88;;;0.80;;
15240;SDS011;7723;52.170;9.978;2023-07-29T13:51:50;1.35;;;0.90;;
15240;SDS011;7723;52.170;9.978;2023-07-29T13:54:17;1.02;;;0.90;;
15240;SDS011;7723;52.170;9.978;2023-07-29T13:56:44;2.05;;;0.70;;
15240;SDS011;7723;52.170;9.978;2023-07-29T13:59:11;2.67;;;0.70;;
15240;SDS011;7723;52.170;9.978;2023-07-29T14:01:38;0.70;;;0.70;;
15240;SDS011;7723;52.170;9.978;2023-07-29T14:04:05;0.88;;;0.80;;
15240;SDS011;7723;52.170;9.978;2023-07-29T14:06:32;0.85;;;0.80;;
15240;SDS011;7723;52.170;9.978;2023-07-29T14:09:01;2.45;;;1.17;;
15240;SDS011;7723;52.170;9.978;2023-07-29T14:11:28;1.27;;;0.73;;
15240;SDS011;7723;52.170;9.978;2023-07-29T14:13:55;0.77;;;0.70;;
15240;SDS011;7723;52.170;9.978;2023-07-29T14:16:22;1.05;;;0.95;;
15240;SDS011;7723;52.170;9.978;2023-07-29T14:18:49;1.33;;;1.15;;
15240;SDS011;7723;52.170;9.978;2023-07-29T14:21:16;1.92;;;1.05;;
15240;SDS011;7723;52.170;9.978;2023-07-29T14:23:43;1.25;;;0.95;;
15240;SDS011;7723;52.170;9.978;2023-07-29T14:26:12;0.70;;;0.70;;
15240;SDS011;7723;52.170;9.978;2023-07-29T14:28:39;1.02;;;0.82;;
15240;SDS011;7723;52.170;9.978;2023-07-29T14:31:06;1.73;;;0.77;;
15240;SDS011;7723;52.170;9.978;2023-07-29T14:33:33;0.73;;;0.73;;
15240;SDS011;7723;52.170;9.978;2023-07-29T14:36:00;0.93;;;0.70;;
15240;SDS011;7723;52.170;9.978;2023-07-29T14:38:28;0.90;;;0.70;;
15240;SDS011;7723;52.170;9.978;2023-07-29T14:40:55;0.80;;;0.80;;
15240;SDS011;7723;52.170;9.978;2023-07-29T14:43:24;0.90;;;0.82;;
15240;SDS011;7723;52.170;9.978;2023-07-29T14:45:51;1.10;;;0.90;;
15240;SDS011;7723;52.170;9.978;2023-07-29T14:48:18;1.38;;;1.23;;
15240;SDS011;7723;52.170;9.978;2023-07-29T14:50:45;1.05;;;0.77;;
15240;SDS011;7723;52.170;9.978;2023-07-29T14:53:13;0.98;;;0.60;;
15240;SDS011;7723;52.170;9.978;2023-07-29T14:55:40;1.90;;;0.90;;
15240;SDS011;7723;52.170;9.978;2023-07-29T14:58:07;1.63;;;0.80;;
15240;SDS011;7723;52.170;9.978;2023-07-29T15:00:35;2.28;;;1.13;;
15240;SDS011;7723;52.170;9.978;2023-07-29T15:03:02;1.33;;;1.20;;
15240;SDS011;7723;52.170;9.978;2023-07-29T15:05:30;1.73;;;1.23;;
15240;SDS011;7723;52.170;9.978;2023-07-29T15:07:57;1.35;;;1.25;;